< < Back
Terminal Aerodrome Forecast


Current Version              Previous Versions:   1  2  3  4  5  6  7  8  9  

Terminal Aerodrome Forecast

073
FTUS42 KTAE 172300
TAFTLH
TAF
KTLH 172338Z 1800/1824 08010KT P6SM BKN020
     FM180200 08010KT 5SM RA OVC018
     FM180800 07013G20KT 2SM +RA OVC006
     FM181900 14014G22KT 2SM +TSRA OVC010CB=



Latest METAR

398
SAUS80 KWBC 180000 CCA
MTRTLH
METAR KTLH 172353Z 08007KT 5SM RA BKN026 BKN040 OVC055 18/15 A3022 RMK
AO2 TSB15E34RAB2259 SLP232 P0021 60022 T01830150 10233 20178
53009


USA.gov is the U.S. government's official web portal to all federal, state and local government web resources and services.